createdAt,value
2019-04-30T00:00:06.155Z,194.63
2019-04-30T00:01:07.441Z,194.80
2019-04-30T00:02:05.829Z,194.80
2019-04-30T00:03:06.610Z,194.80
2019-04-30T00:04:05.736Z,194.97
2019-04-30T00:05:05.497Z,195.14
2019-04-30T00:06:07.235Z,195.31
2019-04-30T00:07:05.675Z,195.48
2019-04-30T00:08:05.841Z,195.65
2019-04-30T00:09:05.363Z,196.33
2019-04-30T00:10:06.131Z,196.50
2019-04-30T00:11:05.383Z,197.01
2019-04-30T00:12:05.619Z,197.18
2019-04-30T00:13:06.109Z,197.18
2019-04-30T00:14:05.648Z,197.18
2019-04-30T00:15:06.202Z,197.18
2019-04-30T00:16:05.319Z,197.18
2019-04-30T00:17:06.350Z,197.18
2019-04-30T00:18:05.505Z,197.18
2019-04-30T00:19:06.187Z,197.18
2019-04-30T00:20:05.298Z,197.01
2019-04-30T00:21:05.517Z,197.18
2019-04-30T00:22:05.730Z,197.01
2019-04-30T00:23:05.194Z,197.18
2019-04-30T00:24:06.221Z,197.01
2019-04-30T00:25:05.562Z,197.01
2019-04-30T00:26:09.983Z,197.01
2019-04-30T00:27:05.530Z,197.18
2019-04-30T00:28:08.479Z,197.35
2019-04-30T00:29:05.109Z,197.35
2019-04-30T00:30:07.696Z,197.18
2019-04-30T00:31:05.504Z,197.52
2019-04-30T00:32:07.785Z,197.35
2019-04-30T00:33:05.814Z,197.35
2019-04-30T00:34:05.077Z,197.52
2019-04-30T00:35:04.465Z,197.52
2019-04-30T00:36:04.981Z,197.35
2019-04-30T00:37:07.260Z,197.18
2019-04-30T00:38:05.418Z,197.18
2019-04-30T00:39:07.118Z,197.18
2019-04-30T00:40:05.621Z,197.35
2019-04-30T00:41:06.839Z,197.35
2019-04-30T00:42:05.380Z,197.35
2019-04-30T00:43:07.942Z,197.18
2019-04-30T00:44:05.376Z,197.18
2019-04-30T00:45:09.495Z,197.18
2019-04-30T00:46:05.333Z,197.01
2019-04-30T00:47:07.879Z,197.01
2019-04-30T00:48:06.004Z,197.01
2019-04-30T00:49:09.801Z,197.01
2019-04-30T00:50:05.338Z,197.01
2019-04-30T00:51:08.923Z,197.18
2019-04-30T00:52:05.286Z,197.18
2019-04-30T00:53:05.957Z,197.18
2019-04-30T00:54:05.709Z,197.35
2019-04-30T00:55:05.556Z,197.35
2019-04-30T00:56:05.687Z,197.35
2019-04-30T00:57:07.507Z,197.52
2019-04-30T00:58:05.911Z,197.35
2019-04-30T00:59:07.096Z,197.52
2019-04-30T01:00:05.215Z,197.52
2019-04-30T01:01:08.007Z,197.52
2019-04-30T01:02:05.958Z,197.52
2019-04-30T01:03:05.918Z,197.52
2019-04-30T01:04:05.039Z,197.52
2019-04-30T01:05:06.041Z,197.35
2019-04-30T01:06:05.398Z,197.52
2019-04-30T01:07:05.213Z,197.69
2019-04-30T01:08:04.984Z,197.86
2019-04-30T01:09:05.561Z,197.86
2019-04-30T01:10:05.108Z,197.86
2019-04-30T01:11:09.428Z,197.86
2019-04-30T01:12:05.514Z,197.86
2019-04-30T01:13:08.008Z,198.03
2019-04-30T01:14:05.043Z,198.20
2019-04-30T01:15:06.417Z,198.28
2019-04-30T01:16:05.015Z,198.45
2019-04-30T01:17:08.136Z,198.45
2019-04-30T01:18:04.995Z,198.62
2019-04-30T01:19:05.729Z,198.62
2019-04-30T01:20:04.985Z,198.62
2019-04-30T01:21:07.851Z,198.62
2019-04-30T01:22:04.944Z,198.62
2019-04-30T01:23:08.016Z,198.79
2019-04-30T01:24:04.924Z,198.79
2019-04-30T01:25:08.918Z,198.96
2019-04-30T01:26:04.937Z,199.13
2019-04-30T01:27:06.713Z,199.13
2019-04-30T01:28:04.879Z,199.13
2019-04-30T01:29:03.870Z,199.13
2019-04-30T01:30:03.854Z,199.13
2019-04-30T01:31:03.873Z,199.30
2019-04-30T01:32:03.834Z,199.47
2019-04-30T01:33:03.824Z,199.47
2019-04-30T01:34:05.146Z,199.47
2019-04-30T01:35:04.808Z,199.47
2019-04-30T01:36:04.064Z,199.47
2019-04-30T01:37:03.784Z,199.64
2019-04-30T01:38:04.080Z,199.64
2019-04-30T01:39:03.759Z,199.64
2019-04-30T01:40:10.524Z,199.64
2019-04-30T01:41:04.763Z,199.81
2019-04-30T01:42:07.899Z,199.98
2019-04-30T01:43:04.717Z,199.98
2019-04-30T01:44:03.910Z,200.15
2019-04-30T01:45:03.705Z,200.49
2019-04-30T01:46:12.187Z,200.49
2019-04-30T01:47:04.679Z,200.66
2019-04-30T01:48:08.618Z,200.83
2019-04-30T01:49:04.661Z,201.00
2019-04-30T01:50:04.975Z,201.17
2019-04-30T01:51:03.639Z,201.17
2019-04-30T01:52:03.645Z,201.00
2019-04-30T01:53:04.835Z,201.17
2019-04-30T01:54:03.610Z,201.17
2019-04-30T01:55:03.595Z,201.00
2019-04-30T01:56:03.583Z,201.00
2019-04-30T01:57:03.593Z,200.83
2019-04-30T01:58:03.567Z,200.83
2019-04-30T01:59:03.547Z,201.00
2019-04-30T02:00:03.549Z,201.00
2019-04-30T02:01:03.527Z,201.00
2019-04-30T02:02:03.538Z,200.83
2019-04-30T02:03:03.502Z,201.00
2019-04-30T02:04:03.494Z,201.00
2019-04-30T02:05:03.504Z,201.00
2019-04-30T02:06:03.478Z,201.00
2019-04-30T02:07:03.489Z,201.00
2019-04-30T02:08:03.450Z,201.00
2019-04-30T02:09:03.439Z,201.00
2019-04-30T02:10:03.423Z,201.00
2019-04-30T02:11:03.424Z,201.00
2019-04-30T02:12:03.427Z,201.00
2019-04-30T02:13:03.403Z,201.00
2019-04-30T02:14:03.392Z,201.00
2019-04-30T02:15:03.405Z,201.00
2019-04-30T02:16:03.360Z,201.17
2019-04-30T02:17:03.370Z,201.00
2019-04-30T02:18:03.352Z,201.00
2019-04-30T02:19:03.337Z,201.00
2019-04-30T02:20:03.316Z,201.00
2019-04-30T02:21:03.320Z,201.00
2019-04-30T02:22:03.323Z,201.17
2019-04-30T02:23:03.299Z,201.00
2019-04-30T02:24:03.289Z,201.00
2019-04-30T02:25:03.263Z,201.00
2019-04-30T02:26:03.249Z,201.00
2019-04-30T02:27:03.249Z,200.83
2019-04-30T02:28:03.254Z,200.83
2019-04-30T02:29:03.228Z,200.83
2019-04-30T02:30:03.250Z,200.66
2019-04-30T02:31:03.199Z,200.66
2019-04-30T02:32:03.205Z,200.66
2019-04-30T02:33:03.211Z,200.83
2019-04-30T02:34:03.817Z,201.00
2019-04-30T02:35:03.359Z,201.00
2019-04-30T02:36:03.820Z,201.00
2019-04-30T02:37:03.147Z,200.83
2019-04-30T02:38:03.177Z,200.83
2019-04-30T02:39:03.123Z,201.00
2019-04-30T02:40:03.115Z,201.00
2019-04-30T02:41:03.133Z,201.17
2019-04-30T02:42:03.090Z,201.00
2019-04-30T02:43:03.128Z,201.17
2019-04-30T02:44:03.075Z,200.83
2019-04-30T02:45:03.701Z,200.83
2019-04-30T02:46:03.052Z,200.83
2019-04-30T02:47:03.044Z,200.66
2019-04-30T02:48:03.029Z,200.83
2019-04-30T02:49:03.051Z,200.83
2019-04-30T02:50:14.094Z,200.66
2019-04-30T02:51:03.994Z,200.83
2019-04-30T02:52:03.009Z,200.83
2019-04-30T02:53:02.979Z,200.83
2019-04-30T02:54:02.989Z,200.83
2019-04-30T02:55:02.990Z,200.83
2019-04-30T02:56:02.941Z,201.00
2019-04-30T02:57:02.929Z,201.17
2019-04-30T02:58:02.924Z,201.00
2019-04-30T02:59:03.871Z,201.34
2019-04-30T03:00:02.931Z,201.51
2019-04-30T03:01:02.904Z,201.51
2019-04-30T03:02:02.878Z,201.68
2019-04-30T03:03:02.857Z,201.51
2019-04-30T03:04:02.876Z,201.51
2019-04-30T03:05:02.840Z,201.51
2019-04-30T03:06:02.824Z,201.68
2019-04-30T03:07:02.815Z,201.85
2019-04-30T03:08:02.811Z,201.85
2019-04-30T03:09:02.828Z,201.85
2019-04-30T03:10:02.801Z,201.85
2019-04-30T03:11:02.773Z,202.02
2019-04-30T03:12:02.768Z,202.02
2019-04-30T03:13:02.749Z,202.18
2019-04-30T03:14:02.764Z,202.18
2019-04-30T03:15:02.791Z,202.18
2019-04-30T03:16:02.720Z,202.18
2019-04-30T03:17:02.702Z,202.18
2019-04-30T03:18:02.695Z,202.18
2019-04-30T03:19:02.704Z,202.18
2019-04-30T03:20:03.570Z,202.52
2019-04-30T03:21:02.669Z,202.52
2019-04-30T03:22:02.673Z,202.52
2019-04-30T03:23:02.652Z,202.52
2019-04-30T03:24:02.664Z,202.61
2019-04-30T03:25:02.622Z,202.78
2019-04-30T03:26:02.603Z,202.78
2019-04-30T03:27:02.595Z,202.78
2019-04-30T03:28:02.584Z,202.78
2019-04-30T03:29:02.581Z,202.78
2019-04-30T03:30:02.682Z,202.95
2019-04-30T03:31:04.503Z,202.95
2019-04-30T03:32:03.657Z,202.95
2019-04-30T03:33:03.171Z,202.95
2019-04-30T03:34:02.566Z,202.95
2019-04-30T03:35:03.393Z,202.95
2019-04-30T03:36:02.836Z,203.12
2019-04-30T03:37:02.492Z,202.95
2019-04-30T03:38:02.476Z,202.95
2019-04-30T03:39:02.494Z,202.95
2019-04-30T03:40:02.494Z,202.95
2019-04-30T03:41:02.450Z,202.95
2019-04-30T03:42:02.436Z,202.95
2019-04-30T03:43:03.098Z,203.12
2019-04-30T03:44:17.119Z,202.95
2019-04-30T03:45:03.431Z,202.95
2019-04-30T03:46:02.686Z,202.95
2019-04-30T03:47:02.382Z,202.95
2019-04-30T03:48:02.370Z,202.95
2019-04-30T03:49:02.355Z,203.12
2019-04-30T03:50:02.395Z,203.12
2019-04-30T03:51:02.356Z,203.12
2019-04-30T03:52:02.332Z,202.95
2019-04-30T03:53:02.312Z,203.29
2019-04-30T03:54:02.304Z,203.12
2019-04-30T03:55:02.953Z,202.95
2019-04-30T03:56:02.323Z,203.12
2019-04-30T03:57:02.299Z,202.95
2019-04-30T03:58:02.266Z,203.12
2019-04-30T03:59:02.295Z,203.12
2019-04-30T04:00:02.272Z,202.95
2019-04-30T04:01:02.235Z,202.95
2019-04-30T04:02:02.225Z,202.78
2019-04-30T04:03:02.208Z,202.78
2019-04-30T04:04:02.230Z,202.78
2019-04-30T04:05:03.106Z,202.78
2019-04-30T04:06:02.172Z,202.78
2019-04-30T04:07:02.170Z,202.78
2019-04-30T04:08:02.165Z,202.61
2019-04-30T04:09:02.138Z,202.61
2019-04-30T04:10:02.154Z,202.52
2019-04-30T04:11:03.103Z,202.52
2019-04-30T04:12:02.106Z,202.35
2019-04-30T04:13:02.110Z,202.35
2019-04-30T04:14:02.101Z,202.35
2019-04-30T04:15:03.936Z,202.18
2019-04-30T04:16:02.098Z,202.18
2019-04-30T04:17:02.064Z,202.18
2019-04-30T04:18:02.085Z,202.18
2019-04-30T04:19:02.737Z,202.18
2019-04-30T04:20:02.034Z,202.35
2019-04-30T04:21:11.321Z,202.52
2019-04-30T04:22:04.216Z,202.61
2019-04-30T04:23:01.997Z,202.78
2019-04-30T04:24:01.987Z,202.78
2019-04-30T04:25:01.973Z,202.78
2019-04-30T04:26:01.959Z,202.78
2019-04-30T04:27:01.991Z,202.78
2019-04-30T04:28:01.941Z,202.78
2019-04-30T04:29:01.928Z,202.61
2019-04-30T04:30:01.944Z,202.52
2019-04-30T04:31:01.913Z,202.35
2019-04-30T04:32:01.921Z,202.35
2019-04-30T04:33:01.886Z,202.18
2019-04-30T04:34:01.887Z,202.02
2019-04-30T04:35:01.873Z,201.85
2019-04-30T04:36:01.881Z,202.02
2019-04-30T04:37:01.874Z,202.02
2019-04-30T04:38:01.835Z,201.85
2019-04-30T04:39:01.816Z,201.68
2019-04-30T04:40:01.818Z,201.68
2019-04-30T04:41:03.091Z,201.68
2019-04-30T04:42:01.866Z,201.51
2019-04-30T04:43:01.777Z,201.34
2019-04-30T04:44:01.762Z,201.34
2019-04-30T04:45:01.768Z,201.17
2019-04-30T04:46:01.747Z,200.83
2019-04-30T04:47:01.773Z,200.83
2019-04-30T04:48:01.731Z,201.00
2019-04-30T04:49:01.718Z,200.83
2019-04-30T04:50:01.711Z,200.83
2019-04-30T04:51:01.686Z,200.83
2019-04-30T04:52:01.717Z,200.83
2019-04-30T04:53:01.678Z,201.00
2019-04-30T04:54:03.314Z,200.83
2019-04-30T04:55:01.675Z,201.00
2019-04-30T04:56:01.635Z,201.17
2019-04-30T04:57:13.213Z,201.17
2019-04-30T04:58:02.617Z,201.17
2019-04-30T04:59:01.608Z,201.00
2019-04-30T05:00:07.138Z,201.00
2019-04-30T05:01:02.592Z,200.83
2019-04-30T05:02:01.603Z,200.66
2019-04-30T05:03:01.567Z,200.66
2019-04-30T05:04:01.554Z,200.49
2019-04-30T05:05:01.551Z,200.49
2019-04-30T05:06:02.633Z,200.49
2019-04-30T05:07:01.550Z,200.32
2019-04-30T05:08:01.529Z,200.32
2019-04-30T05:09:01.670Z,200.15
2019-04-30T05:10:01.492Z,200.15
2019-04-30T05:11:01.505Z,200.15
2019-04-30T05:12:01.501Z,199.81
2019-04-30T05:13:01.495Z,199.64
2019-04-30T05:14:01.451Z,199.81
2019-04-30T05:15:01.430Z,199.64
2019-04-30T05:16:01.423Z,199.81
2019-04-30T05:17:01.406Z,199.98
2019-04-30T05:18:01.419Z,199.81
2019-04-30T05:19:01.396Z,199.81
2019-04-30T05:20:01.379Z,199.81
2019-04-30T05:21:01.363Z,199.98
2019-04-30T05:22:01.350Z,199.81
2019-04-30T05:23:01.379Z,199.81
2019-04-30T05:24:01.335Z,199.98
2019-04-30T05:25:01.333Z,200.15
2019-04-30T05:26:01.311Z,200.15
2019-04-30T05:27:01.308Z,200.15
2019-04-30T05:28:01.314Z,200.15
2019-04-30T05:29:01.281Z,200.15
2019-04-30T05:30:01.263Z,200.15
2019-04-30T05:31:01.264Z,199.81
2019-04-30T05:32:01.245Z,199.81
2019-04-30T05:33:01.263Z,199.81
2019-04-30T05:34:01.223Z,199.47
2019-04-30T05:35:01.223Z,199.64
2019-04-30T05:36:01.199Z,199.47
2019-04-30T05:37:01.191Z,199.30
2019-04-30T05:38:01.202Z,199.30
2019-04-30T05:39:01.193Z,199.30
2019-04-30T05:40:01.160Z,199.30
2019-04-30T05:41:01.148Z,198.96
2019-04-30T05:42:01.138Z,199.13
2019-04-30T05:43:01.154Z,198.96
2019-04-30T05:44:01.130Z,199.13
2019-04-30T05:45:01.101Z,199.30
2019-04-30T05:46:01.098Z,199.47
2019-04-30T05:47:01.077Z,199.30
2019-04-30T05:48:01.080Z,199.47
2019-04-30T05:49:01.097Z,199.47
2019-04-30T05:50:01.052Z,199.47
2019-04-30T05:51:01.040Z,199.47
2019-04-30T05:52:01.041Z,199.30
2019-04-30T05:53:01.120Z,199.47
2019-04-30T05:54:01.028Z,199.47
2019-04-30T05:55:01.003Z,199.64
2019-04-30T05:56:03.110Z,199.64
2019-04-30T05:57:00.989Z,199.64
2019-04-30T05:58:01.497Z,199.47
2019-04-30T05:59:01.016Z,199.47
2019-04-30T06:00:00.957Z,199.47
2019-04-30T06:01:00.947Z,199.30
2019-04-30T06:02:00.924Z,199.47
2019-04-30T06:03:00.920Z,199.13
2019-04-30T06:04:00.929Z,199.30
2019-04-30T06:05:00.883Z,199.30
2019-04-30T06:06:00.961Z,199.30
2019-04-30T06:07:00.879Z,199.13
2019-04-30T06:08:00.953Z,199.13
2019-04-30T06:09:06.768Z,199.30
2019-04-30T06:10:01.839Z,198.96
2019-04-30T06:11:00.825Z,199.13
2019-04-30T06:12:00.845Z,198.96
2019-04-30T06:13:00.799Z,198.96
2019-04-30T06:14:00.812Z,198.79
2019-04-30T06:15:00.811Z,198.79
2019-04-30T06:16:00.771Z,199.13
2019-04-30T06:17:00.764Z,199.13
2019-04-30T06:18:10.576Z,199.13
2019-04-30T06:19:01.768Z,199.13
2019-04-30T06:20:00.741Z,199.13
2019-04-30T06:21:00.717Z,199.30
2019-04-30T06:22:07.776Z,199.13
2019-04-30T06:23:01.698Z,199.30
2019-04-30T06:24:00.686Z,199.30
2019-04-30T06:25:00.704Z,199.30
2019-04-30T06:26:09.333Z,199.47
2019-04-30T06:27:01.645Z,199.30
2019-04-30T06:28:00.656Z,199.30
2019-04-30T06:29:01.463Z,199.13
2019-04-30T06:30:00.660Z,199.30
2019-04-30T06:31:00.625Z,199.30
2019-04-30T06:32:00.593Z,199.13
2019-04-30T06:33:00.579Z,198.96
2019-04-30T06:34:00.585Z,198.96
2019-04-30T06:35:00.588Z,198.96
2019-04-30T06:36:00.563Z,198.96
2019-04-30T06:37:00.555Z,198.79
2019-04-30T06:38:00.535Z,198.79
2019-04-30T06:39:00.522Z,198.79
2019-04-30T06:40:00.546Z,198.96
2019-04-30T06:41:00.506Z,198.62
2019-04-30T06:42:06.837Z,198.62
2019-04-30T06:43:01.478Z,198.62
2019-04-30T06:44:00.456Z,198.79
2019-04-30T06:45:00.541Z,198.62
2019-04-30T06:46:01.010Z,198.62
2019-04-30T06:47:01.256Z,198.62
2019-04-30T06:48:00.430Z,198.62
2019-04-30T06:49:00.400Z,198.62
2019-04-30T06:50:01.340Z,198.28
2019-04-30T06:51:01.683Z,198.20
2019-04-30T06:52:00.370Z,198.28
2019-04-30T06:53:01.588Z,198.28
2019-04-30T06:54:00.372Z,198.03
2019-04-30T06:55:00.562Z,197.86
2019-04-30T06:56:00.338Z,197.69
2019-04-30T06:57:00.337Z,197.69
2019-04-30T06:58:12.069Z,197.52
2019-04-30T06:59:01.286Z,197.52
2019-04-30T07:00:00.306Z,197.52
2019-04-30T07:01:00.300Z,197.69
2019-04-30T07:02:00.258Z,197.52
2019-04-30T07:03:00.249Z,197.52
2019-04-30T07:04:01.057Z,197.69
2019-04-30T07:05:00.230Z,197.52
2019-04-30T07:06:00.955Z,197.52
2019-04-30T07:07:00.216Z,197.52
2019-04-30T07:08:05.662Z,197.01
2019-04-30T07:09:01.190Z,196.84
2019-04-30T07:10:01.207Z,196.50
2019-04-30T07:11:07.412Z,195.65
2019-04-30T07:12:01.181Z,195.65
2019-04-30T07:13:00.144Z,195.31
2019-04-30T07:14:00.199Z,195.65
2019-04-30T07:15:00.127Z,195.65
2019-04-30T07:16:00.143Z,195.48
2019-04-30T07:17:00.158Z,195.14
2019-04-30T07:18:00.090Z,194.97
2019-04-30T07:19:00.074Z,194.80
2019-04-30T07:20:00.080Z,194.80
2019-04-30T07:21:00.069Z,194.80
2019-04-30T07:22:00.067Z,194.80
2019-04-30T07:24:01.037Z,194.46
2019-04-30T07:25:00.013Z,194.46
2019-04-30T07:26:00.052Z,194.46
2019-04-30T07:27:02.753Z,194.46
2019-04-30T07:27:59.988Z,194.46
2019-04-30T07:29:02.508Z,194.29
2019-04-30T07:29:59.957Z,194.46
2019-04-30T07:31:10.259Z,194.46
2019-04-30T07:32:00.956Z,194.46
2019-04-30T07:32:59.922Z,194.46
2019-04-30T07:33:59.917Z,194.12
2019-04-30T07:34:59.916Z,194.29
2019-04-30T07:36:01.739Z,194.29
2019-04-30T07:37:11.845Z,194.29
2019-04-30T07:38:04.847Z,194.29
2019-04-30T07:39:00.058Z,194.12
2019-04-30T07:39:59.840Z,194.29
2019-04-30T07:40:59.827Z,194.29
2019-04-30T07:42:00.017Z,194.29
2019-04-30T07:42:59.817Z,194.29
2019-04-30T07:43:59.796Z,194.29
2019-04-30T07:45:00.755Z,194.29
2019-04-30T07:45:59.883Z,194.29
2019-04-30T07:47:02.003Z,194.12
2019-04-30T07:47:59.754Z,194.29
2019-04-30T07:49:00.084Z,194.29
2019-04-30T07:50:00.797Z,194.46
2019-04-30T07:50:59.734Z,194.46
2019-04-30T07:52:01.458Z,194.46
2019-04-30T07:53:05.844Z,194.29
2019-04-30T07:54:00.690Z,194.46
2019-04-30T07:55:00.707Z,194.29
2019-04-30T07:55:59.665Z,194.12
2019-04-30T07:57:00.497Z,194.12
2019-04-30T07:57:59.645Z,194.12
2019-04-30T07:59:00.758Z,193.95
2019-04-30T08:00:00.565Z,194.12
2019-04-30T08:00:59.662Z,193.95
2019-04-30T08:02:07.377Z,193.95
2019-04-30T08:03:00.598Z,193.95
2019-04-30T08:03:59.579Z,193.95
2019-04-30T08:04:59.952Z,193.95
2019-04-30T08:06:00.027Z,193.78
2019-04-30T08:06:59.917Z,193.78
2019-04-30T08:08:16.705Z,193.61
2019-04-30T08:09:01.217Z,193.61
2019-04-30T08:09:34.154Z,194.46
2019-04-30T08:09:59.525Z,193.44
2019-04-30T08:10:59.500Z,193.44
2019-04-30T08:11:59.551Z,193.44
2019-04-30T08:13:08.511Z,193.61
2019-04-30T08:14:00.790Z,193.44
2019-04-30T08:14:59.605Z,193.27
2019-04-30T08:15:59.728Z,193.44
2019-04-30T08:16:59.443Z,193.10
2019-04-30T08:18:03.517Z,193.10
2019-04-30T08:19:00.422Z,192.77
2019-04-30T08:19:59.397Z,192.94
2019-04-30T08:21:00.971Z,192.77
2019-04-30T08:21:59.378Z,192.43
2019-04-30T08:23:13.005Z,192.26
2019-04-30T08:24:01.099Z,192.26
2019-04-30T08:24:59.347Z,192.26
2019-04-30T08:25:59.342Z,192.26
2019-04-30T08:27:01.156Z,192.26
2019-04-30T08:27:59.340Z,192.26
2019-04-30T08:28:59.871Z,192.26
2019-04-30T08:29:59.330Z,192.09
2019-04-30T08:30:59.277Z,192.26
2019-04-30T08:31:59.462Z,192.09
2019-04-30T08:32:59.681Z,192.00
2019-04-30T08:33:59.317Z,192.00
2019-04-30T08:35:01.137Z,191.83
2019-04-30T08:36:01.001Z,192.00
2019-04-30T08:36:59.511Z,192.09
2019-04-30T08:37:59.225Z,192.09
2019-04-30T08:38:59.704Z,192.00
2019-04-30T08:40:00.215Z,192.09
2019-04-30T08:41:00.843Z,192.26
2019-04-30T08:42:00.018Z,192.09
2019-04-30T08:42:59.564Z,192.09
2019-04-30T08:43:59.833Z,192.09
2019-04-30T08:44:59.137Z,192.09
2019-04-30T08:45:59.545Z,192.09
2019-04-30T08:46:59.177Z,192.26
2019-04-30T08:47:59.151Z,192.09
2019-04-30T08:48:59.107Z,192.00
2019-04-30T08:50:02.365Z,192.00
2019-04-30T08:50:59.594Z,192.09
2019-04-30T08:51:59.052Z,192.00
2019-04-30T08:53:00.039Z,192.00
2019-04-30T08:53:59.038Z,191.83
2019-04-30T08:55:12.999Z,191.83
2019-04-30T08:56:00.007Z,192.00
2019-04-30T08:56:59.530Z,192.00
2019-04-30T08:58:09.369Z,192.00
2019-04-30T08:59:00.010Z,192.00
2019-04-30T08:59:58.954Z,192.00
2019-04-30T09:00:58.945Z,191.83
2019-04-30T09:02:12.541Z,191.66
2019-04-30T09:02:59.961Z,191.66
2019-04-30T09:03:59.713Z,191.49
2019-04-30T09:05:00.523Z,191.66
2019-04-30T09:05:59.039Z,191.49
2019-04-30T09:06:59.959Z,191.66
2019-04-30T09:07:59.816Z,191.49
2019-04-30T09:08:59.321Z,191.49
2019-04-30T09:10:01.219Z,191.49
2019-04-30T09:10:59.575Z,191.32
2019-04-30T09:11:59.305Z,191.49
2019-04-30T09:12:59.771Z,191.49
2019-04-30T09:13:58.830Z,191.49
2019-04-30T09:14:59.174Z,191.32
2019-04-30T09:15:59.378Z,191.32
2019-04-30T09:16:59.612Z,190.98
2019-04-30T09:18:03.840Z,190.82
2019-04-30T09:18:59.773Z,190.82
2019-04-30T09:19:59.026Z,190.82
2019-04-30T09:21:05.952Z,190.65
2019-04-30T09:21:59.717Z,190.82
2019-04-30T09:22:59.554Z,190.65
2019-04-30T09:23:59.438Z,190.65
2019-04-30T09:24:59.237Z,190.65
2019-04-30T09:25:58.702Z,190.65
2019-04-30T09:26:59.143Z,190.65
2019-04-30T09:27:58.936Z,190.82
2019-04-30T09:28:59.294Z,190.65
2019-04-30T09:29:58.851Z,190.65
2019-04-30T09:30:58.807Z,190.65
2019-04-30T09:31:59.401Z,190.48
2019-04-30T09:32:59.491Z,190.48
2019-04-30T09:34:00.827Z,190.48
2019-04-30T09:34:58.810Z,190.65
2019-04-30T09:35:59.524Z,190.48
2019-04-30T09:36:59.021Z,190.48
2019-04-30T09:38:01.423Z,190.31
2019-04-30T09:39:01.338Z,190.48
2019-04-30T09:39:59.200Z,190.48
2019-04-30T09:40:59.401Z,190.31
2019-04-30T09:41:59.563Z,190.48
2019-04-30T09:42:58.805Z,190.65
2019-04-30T09:43:59.749Z,190.82
2019-04-30T09:44:59.618Z,190.65
2019-04-30T09:45:59.300Z,190.82
2019-04-30T09:46:58.904Z,190.82
2019-04-30T09:47:59.272Z,190.98
2019-04-30T09:48:59.769Z,190.98
2019-04-30T09:49:59.589Z,190.98
2019-04-30T09:51:00.473Z,190.98
2019-04-30T09:51:59.367Z,190.98
2019-04-30T09:53:00.316Z,190.98
2019-04-30T09:54:00.533Z,190.98
2019-04-30T09:54:59.445Z,191.32
2019-04-30T09:55:59.603Z,191.49
2019-04-30T09:56:59.015Z,191.32
2019-04-30T09:57:58.859Z,191.49
2019-04-30T09:58:59.255Z,191.83
2019-04-30T09:59:58.329Z,191.83
2019-04-30T10:00:59.367Z,191.83
2019-04-30T10:01:58.284Z,192.09
2019-04-30T10:02:59.942Z,191.83
2019-04-30T10:04:00.282Z,192.00
2019-04-30T10:04:58.676Z,192.09
2019-04-30T10:05:59.089Z,192.09
2019-04-30T10:06:59.588Z,192.26
2019-04-30T10:07:59.407Z,192.09
2019-04-30T10:08:59.676Z,192.26
2019-04-30T10:09:59.099Z,192.26
2019-04-30T10:10:58.801Z,192.43
2019-04-30T10:11:59.587Z,192.26
2019-04-30T10:12:59.285Z,192.09
2019-04-30T10:13:58.146Z,192.09
2019-04-30T10:14:59.263Z,192.09
2019-04-30T10:15:58.556Z,192.26
2019-04-30T10:16:59.519Z,192.26
2019-04-30T10:17:58.093Z,192.60
2019-04-30T10:18:59.245Z,192.77
2019-04-30T10:19:58.082Z,192.77
2019-04-30T10:20:58.887Z,192.60
2019-04-30T10:21:58.963Z,192.77
2019-04-30T10:22:59.619Z,192.94
2019-04-30T10:24:10.438Z,192.94
2019-04-30T10:24:59.671Z,192.94
2019-04-30T10:25:58.051Z,193.10
2019-04-30T10:26:58.006Z,193.10
2019-04-30T10:27:59.786Z,193.27
2019-04-30T10:28:57.992Z,193.27
2019-04-30T10:29:59.384Z,193.44
2019-04-30T10:30:57.966Z,193.44
2019-04-30T10:31:58.766Z,193.61
2019-04-30T10:33:28.563Z,192.94
2019-04-30T10:34:26.378Z,193.27
2019-04-30T10:35:28.460Z,193.61
2019-04-30T10:36:26.370Z,193.44
2019-04-30T10:37:26.329Z,193.61
2019-04-30T10:38:26.333Z,193.44
2019-04-30T10:39:26.297Z,193.27
2019-04-30T10:40:26.306Z,193.61
2019-04-30T10:41:26.302Z,193.61
2019-04-30T10:42:26.252Z,193.44
2019-04-30T10:43:26.230Z,193.61
2019-04-30T10:44:26.209Z,193.78
2019-04-30T10:45:26.177Z,193.78
2019-04-30T10:46:26.185Z,193.61
2019-04-30T10:47:26.175Z,193.78
2019-04-30T10:48:26.124Z,194.12
2019-04-30T10:49:26.163Z,193.95
2019-04-30T10:50:26.101Z,193.95
2019-04-30T10:51:26.072Z,193.78
2019-04-30T10:52:26.071Z,194.12
2019-04-30T10:53:26.042Z,193.95
2019-04-30T10:54:26.542Z,193.61
2019-04-30T10:55:26.002Z,193.78
2019-04-30T10:56:26.749Z,193.10
2019-04-30T10:57:28.393Z,193.27
2019-04-30T10:58:26.696Z,193.61
2019-04-30T10:59:26.675Z,193.78
2019-04-30T11:00:28.296Z,193.95
2019-04-30T11:01:26.651Z,194.12
2019-04-30T11:02:28.737Z,193.95
2019-04-30T11:03:26.622Z,193.78
2019-04-30T11:04:26.611Z,193.78
2019-04-30T11:05:26.602Z,193.78
2019-04-30T11:06:26.586Z,193.95
2019-04-30T11:07:28.692Z,193.95
2019-04-30T11:08:26.569Z,193.78
2019-04-30T11:09:26.553Z,193.78
2019-04-30T11:10:26.545Z,193.61
2019-04-30T11:11:28.294Z,193.61
2019-04-30T11:12:26.542Z,193.78
2019-04-30T11:13:26.532Z,193.44
2019-04-30T11:14:26.510Z,193.78
2019-04-30T11:15:26.523Z,193.61
2019-04-30T11:16:26.488Z,193.78
2019-04-30T11:17:26.733Z,193.95
2019-04-30T11:18:26.633Z,193.95
2019-04-30T11:19:26.627Z,193.78
2019-04-30T11:20:26.683Z,193.95
2019-04-30T11:21:26.617Z,193.95
2019-04-30T11:22:26.617Z,194.29
2019-04-30T11:23:26.530Z,194.12
2019-04-30T11:24:35.905Z,194.12
2019-04-30T11:25:28.693Z,194.12
2019-04-30T11:26:26.685Z,193.95
2019-04-30T11:27:26.900Z,194.29
2019-04-30T11:28:27.087Z,194.29
2019-04-30T11:29:26.580Z,194.63
2019-04-30T11:30:26.669Z,194.63
2019-04-30T11:31:26.552Z,194.80
2019-04-30T11:32:26.451Z,194.97
2019-04-30T11:33:26.487Z,194.97
2019-04-30T11:34:28.156Z,195.31
2019-04-30T11:35:26.288Z,195.48
2019-04-30T11:36:26.302Z,195.48
2019-04-30T11:37:26.330Z,195.65
2019-04-30T11:38:26.263Z,195.48
2019-04-30T11:39:26.245Z,195.65
2019-04-30T11:40:34.281Z,196.33
2019-04-30T11:41:30.880Z,196.67
2019-04-30T11:42:27.235Z,196.84
2019-04-30T11:43:26.199Z,197.18
2019-04-30T11:44:30.893Z,197.35
2019-04-30T11:45:27.192Z,197.35
2019-04-30T11:46:26.175Z,197.52
2019-04-30T11:47:26.166Z,197.69
2019-04-30T11:48:26.180Z,197.86
2019-04-30T11:49:26.143Z,198.03
2019-04-30T11:50:26.132Z,198.20
2019-04-30T11:51:27.079Z,198.20
2019-04-30T11:52:26.120Z,198.20
2019-04-30T11:53:28.797Z,198.28
2019-04-30T11:54:26.103Z,198.20
2019-04-30T11:55:26.082Z,198.20
2019-04-30T11:56:26.065Z,198.03
2019-04-30T11:57:26.047Z,198.03
2019-04-30T11:58:26.081Z,197.69
2019-04-30T11:59:26.091Z,197.86
2019-04-30T12:00:26.019Z,197.86
2019-04-30T12:01:26.152Z,197.86
2019-04-30T12:02:26.002Z,198.03
2019-04-30T12:03:25.989Z,198.20
2019-04-30T12:04:26.010Z,198.03
2019-04-30T12:05:25.985Z,198.28
2019-04-30T12:06:25.973Z,198.28
2019-04-30T12:07:25.951Z,198.28
2019-04-30T12:08:26.595Z,198.28
2019-04-30T12:09:25.965Z,198.45
2019-04-30T12:10:25.935Z,198.28
2019-04-30T12:11:25.924Z,198.45
2019-04-30T12:12:25.909Z,198.28
2019-04-30T12:13:25.892Z,198.20
2019-04-30T12:14:25.876Z,198.20
2019-04-30T12:15:25.898Z,198.28
2019-04-30T12:16:25.862Z,198.45
2019-04-30T12:17:25.851Z,198.28
2019-04-30T12:18:25.850Z,198.28
2019-04-30T12:19:25.842Z,198.45
2019-04-30T12:20:25.833Z,198.45
2019-04-30T12:21:25.809Z,198.45
2019-04-30T12:22:25.815Z,198.45
2019-04-30T12:23:25.782Z,198.62
2019-04-30T12:24:25.806Z,198.62
2019-04-30T12:25:25.803Z,198.62
2019-04-30T12:26:25.766Z,198.45
2019-04-30T12:27:25.741Z,198.79
2019-04-30T12:28:27.289Z,198.96